createdAt,value
2023-01-26T00:02:11.752Z,6.58
2023-01-26T00:04:40.037Z,6.63
2023-01-26T00:07:07.932Z,6.65
2023-01-26T00:09:36.368Z,6.69
2023-01-26T00:12:05.017Z,6.68
2023-01-26T00:14:49.847Z,6.64
2023-01-26T00:17:26.789Z,6.55
2023-01-26T00:19:56.405Z,6.57
2023-01-26T00:22:26.821Z,6.56
2023-01-26T00:24:56.207Z,6.54
2023-01-26T00:27:24.639Z,6.48
2023-01-26T00:29:53.103Z,6.21
2023-01-26T00:32:22.407Z,6.10
2023-01-26T00:34:50.899Z,6.04
2023-01-26T00:37:19.030Z,5.97
2023-01-26T00:39:47.135Z,5.81
2023-01-26T00:42:15.940Z,5.88
2023-01-26T00:44:44.610Z,5.98
2023-01-26T00:47:15.330Z,5.95
2023-01-26T00:49:45.770Z,5.63
2023-01-26T00:52:14.156Z,5.39
2023-01-26T00:54:42.340Z,5.64
2023-01-26T00:57:11.049Z,5.71
2023-01-26T00:59:39.129Z,5.70
2023-01-26T01:02:07.248Z,5.72
2023-01-26T01:04:35.664Z,5.65
2023-01-26T01:07:05.098Z,5.62
2023-01-26T01:09:33.544Z,5.42
2023-01-26T01:12:01.829Z,5.56
2023-01-26T01:14:30.010Z,5.49
2023-01-26T01:16:58.265Z,5.41
2023-01-26T01:19:27.414Z,5.58
2023-01-26T01:21:55.487Z,5.65
2023-01-26T01:24:24.969Z,5.63
2023-01-26T01:26:53.472Z,5.53
2023-01-26T01:29:21.768Z,5.63
2023-01-26T01:31:49.919Z,5.52
2023-01-26T01:34:18.322Z,5.68
2023-01-26T01:36:46.417Z,5.76
2023-01-26T01:41:44.696Z,5.76
2023-01-26T01:44:15.471Z,5.77
2023-01-26T01:46:48.106Z,5.70
2023-01-26T01:49:21.045Z,5.68
2023-01-26T01:51:55.235Z,5.81
2023-01-26T01:54:29.945Z,5.85
2023-01-26T01:57:03.675Z,5.73
2023-01-26T01:59:33.664Z,5.82
2023-01-26T02:02:02.162Z,5.88
2023-01-26T02:04:30.752Z,5.90
2023-01-26T02:07:01.594Z,5.90
2023-01-26T02:09:50.788Z,5.89
2023-01-26T02:12:24.067Z,5.68
2023-01-26T02:14:54.293Z,5.76
2023-01-26T02:17:22.580Z,5.70
2023-01-26T02:20:02.410Z,5.67
2023-01-26T02:22:43.301Z,5.66
2023-01-26T02:25:24.947Z,5.66
2023-01-26T02:27:54.757Z,5.68
2023-01-26T02:30:24.417Z,5.64
2023-01-26T02:32:52.629Z,5.58
2023-01-26T02:35:21.176Z,5.71
2023-01-26T02:37:49.345Z,5.64
2023-01-26T02:40:25.918Z,5.66
2023-01-26T02:42:55.278Z,5.41
2023-01-26T02:45:24.778Z,5.65
2023-01-26T02:47:52.911Z,5.59
2023-01-26T02:50:20.197Z,5.51
2023-01-26T02:52:48.330Z,5.56
2023-01-26T02:55:29.365Z,5.70
2023-01-26T02:58:00.669Z,5.68
2023-01-26T03:00:33.544Z,5.72
2023-01-26T03:03:10.724Z,5.69
2023-01-26T03:05:38.736Z,5.68
2023-01-26T03:08:06.946Z,5.68
2023-01-26T03:10:36.093Z,5.80
2023-01-26T03:13:05.626Z,5.91
2023-01-26T03:15:43.970Z,5.86
2023-01-26T03:18:29.079Z,5.90
2023-01-26T03:21:16.909Z,5.89
2023-01-26T03:24:02.706Z,5.82
2023-01-26T03:26:48.603Z,5.70
2023-01-26T03:29:18.509Z,5.72
2023-01-26T03:31:46.928Z,5.62
2023-01-26T03:34:15.027Z,5.71
2023-01-26T03:36:43.437Z,5.77
2023-01-26T03:39:32.161Z,5.83
2023-01-26T03:42:18.430Z,5.91
2023-01-26T03:45:06.276Z,5.93
2023-01-26T03:47:54.422Z,5.73
2023-01-26T03:50:40.971Z,5.78
2023-01-26T03:53:34.281Z,5.74
2023-01-26T03:56:18.411Z,5.76
2023-01-26T03:58:46.710Z,5.87
2023-01-26T04:01:19.831Z,5.81
2023-01-26T04:04:07.549Z,5.85
2023-01-26T04:06:54.620Z,5.75
2023-01-26T04:09:23.239Z,5.76
2023-01-26T04:11:51.401Z,5.80
2023-01-26T04:14:49.383Z,5.74
2023-01-26T04:17:38.002Z,5.83
2023-01-26T04:20:24.583Z,5.89
2023-01-26T04:22:53.096Z,5.81
2023-01-26T04:25:22.823Z,5.78
2023-01-26T04:27:51.408Z,5.82
2023-01-26T04:30:21.312Z,5.90
2023-01-26T04:32:52.675Z,5.93
2023-01-26T04:35:21.380Z,5.95
2023-01-26T04:37:49.822Z,5.99
2023-01-26T04:40:18.167Z,6.02
2023-01-26T04:42:47.570Z,5.96
2023-01-26T04:45:16.003Z,5.98
2023-01-26T04:47:45.553Z,5.93
2023-01-26T04:50:17.899Z,5.89
2023-01-26T04:52:47.623Z,5.91
2023-01-26T04:55:17.111Z,5.94
2023-01-26T04:57:45.850Z,5.95
2023-01-26T05:00:15.855Z,5.83
2023-01-26T05:02:45.789Z,5.76
2023-01-26T05:05:14.239Z,5.83
2023-01-26T05:07:43.781Z,5.78
2023-01-26T05:10:15.762Z,5.88
2023-01-26T05:12:44.016Z,5.91
2023-01-26T05:15:13.148Z,5.97
2023-01-26T05:17:41.466Z,5.95
2023-01-26T05:20:11.815Z,5.92
2023-01-26T05:22:41.129Z,5.86
2023-01-26T05:25:11.851Z,5.80
2023-01-26T05:27:40.223Z,5.77
2023-01-26T05:30:12.770Z,5.76
2023-01-26T05:32:43.156Z,5.77
2023-01-26T05:35:11.653Z,5.69
2023-01-26T05:37:42.062Z,5.63
2023-01-26T05:40:14.185Z,5.61
2023-01-26T05:42:44.094Z,5.67
2023-01-26T05:45:12.981Z,5.70
2023-01-26T05:47:43.057Z,5.71
2023-01-26T05:50:12.867Z,5.64
2023-01-26T05:52:42.522Z,5.68
2023-01-26T05:55:12.385Z,5.73
2023-01-26T05:57:40.476Z,5.74
2023-01-26T06:00:10.707Z,5.76
2023-01-26T06:02:42.286Z,5.78
2023-01-26T06:05:11.564Z,5.80
2023-01-26T06:07:39.644Z,5.77
2023-01-26T06:10:08.763Z,5.60
2023-01-26T06:12:39.192Z,5.67
2023-01-26T06:15:09.415Z,5.69
2023-01-26T06:17:38.822Z,5.70
2023-01-26T06:20:09.761Z,5.76
2023-01-26T06:22:38.349Z,5.80
2023-01-26T06:25:06.851Z,5.78
2023-01-26T06:27:36.345Z,5.66
2023-01-26T06:30:09.205Z,5.55
2023-01-26T06:32:38.259Z,5.46
2023-01-26T06:35:08.396Z,5.60
2023-01-26T06:37:36.929Z,5.64
2023-01-26T06:40:05.802Z,5.62
2023-01-26T06:42:34.097Z,5.70
2023-01-26T06:45:02.102Z,5.73
2023-01-26T06:47:31.487Z,5.74
2023-01-26T06:50:01.025Z,5.71
2023-01-26T06:52:32.563Z,5.72
2023-01-26T06:55:02.710Z,5.77
2023-01-26T06:57:33.484Z,5.69
2023-01-26T07:00:01.857Z,5.64
2023-01-26T07:02:32.785Z,5.69
2023-01-26T07:05:00.764Z,5.71
2023-01-26T07:07:29.274Z,5.72
2023-01-26T07:09:57.327Z,5.78
2023-01-26T07:12:25.513Z,5.81
2023-01-26T07:14:53.734Z,5.83
2023-01-26T07:17:21.938Z,5.82
2023-01-26T07:19:51.335Z,5.82
2023-01-26T07:22:20.017Z,5.89
2023-01-26T07:24:48.119Z,5.90
2023-01-26T07:27:16.191Z,5.90
2023-01-26T07:29:46.425Z,5.92
2023-01-26T07:32:14.695Z,5.94
2023-01-26T07:34:42.686Z,5.97
2023-01-26T07:37:12.375Z,6.00
2023-01-26T07:39:40.455Z,6.00
2023-01-26T07:42:08.930Z,6.03
2023-01-26T07:44:39.689Z,6.00
2023-01-26T07:47:07.751Z,6.02
2023-01-26T07:49:35.814Z,6.04
2023-01-26T07:52:04.892Z,6.05
2023-01-26T07:54:34.125Z,6.05
2023-01-26T07:57:02.034Z,6.03
2023-01-26T07:59:31.221Z,5.99
2023-01-26T08:01:59.353Z,5.96
2023-01-26T08:04:27.693Z,5.95
2023-01-26T08:06:55.854Z,6.00
2023-01-26T08:09:24.854Z,5.99
2023-01-26T08:11:57.247Z,5.98
2023-01-26T08:14:27.991Z,6.05
2023-01-26T08:16:59.433Z,6.12
2023-01-26T08:19:27.378Z,6.07
2023-01-26T08:21:57.624Z,6.05
2023-01-26T08:24:26.640Z,6.04
2023-01-26T08:26:56.072Z,5.90
2023-01-26T08:29:23.965Z,5.87
2023-01-26T08:31:52.292Z,5.86
2023-01-26T08:34:22.016Z,5.90
2023-01-26T08:36:50.271Z,5.91
2023-01-26T08:39:18.760Z,5.87
2023-01-26T08:41:46.838Z,5.72
2023-01-26T08:44:16.695Z,5.71
2023-01-26T08:46:45.559Z,5.83
2023-01-26T08:49:13.744Z,5.92
2023-01-26T08:51:41.735Z,5.96
2023-01-26T08:54:10.078Z,6.01
2023-01-26T08:56:38.108Z,6.09
2023-01-26T08:59:06.178Z,6.16
2023-01-26T09:01:35.732Z,6.18
2023-01-26T09:04:03.774Z,6.19
2023-01-26T09:06:33.157Z,6.17
2023-01-26T09:09:01.418Z,6.23
2023-01-26T09:11:29.468Z,6.12
2023-01-26T09:13:57.549Z,5.95
2023-01-26T09:16:26.524Z,5.74
2023-01-26T09:18:56.088Z,5.63
2023-01-26T09:21:24.981Z,5.74
2023-01-26T09:23:53.632Z,5.81
2023-01-26T09:26:21.695Z,5.76
2023-01-26T09:28:51.597Z,5.88
2023-01-26T09:31:20.000Z,5.99
2023-01-26T09:33:49.903Z,5.98
2023-01-26T09:36:19.727Z,6.02
2023-01-26T09:38:48.303Z,6.02
2023-01-26T09:41:33.429Z,6.09
2023-01-26T09:44:06.636Z,6.06
2023-01-26T09:46:46.836Z,5.97
2023-01-26T09:49:20.582Z,5.89
2023-01-26T09:51:59.988Z,6.07
2023-01-26T09:54:34.781Z,6.18
2023-01-26T09:57:11.544Z,6.16
2023-01-26T09:59:45.430Z,6.08
2023-01-26T10:02:26.572Z,5.95
2023-01-26T10:04:59.824Z,5.97
2023-01-26T10:07:29.551Z,5.86
2023-01-26T10:09:58.406Z,5.97
2023-01-26T10:12:30.414Z,5.79
2023-01-26T10:15:04.204Z,5.78
2023-01-26T10:17:36.140Z,5.82
2023-01-26T10:20:07.944Z,5.89
2023-01-26T10:22:44.557Z,5.90
2023-01-26T10:25:17.385Z,5.78
2023-01-26T10:27:46.890Z,5.62
2023-01-26T10:30:16.300Z,5.49
2023-01-26T10:32:46.742Z,5.51
2023-01-26T10:35:18.691Z,5.74
2023-01-26T10:37:48.513Z,5.40
2023-01-26T10:40:18.464Z,5.38
2023-01-26T10:42:56.544Z,5.55
2023-01-26T10:45:31.052Z,5.32
2023-01-26T10:48:15.182Z,5.47
2023-01-26T10:50:43.473Z,5.54
2023-01-26T10:53:19.063Z,5.63
2023-01-26T10:56:00.723Z,5.26
2023-01-26T10:58:46.064Z,5.54
2023-01-26T11:01:16.592Z,5.43
2023-01-26T11:04:04.599Z,5.39
2023-01-26T11:06:34.163Z,5.55
2023-01-26T11:09:20.063Z,5.57
2023-01-26T11:12:00.704Z,5.43
2023-01-26T11:14:30.329Z,5.62
2023-01-26T11:17:06.493Z,5.63
2023-01-26T11:19:48.561Z,5.52
2023-01-26T11:22:23.661Z,5.62
2023-01-26T11:25:04.742Z,5.35
2023-01-26T11:27:44.471Z,5.20
2023-01-26T11:30:31.255Z,5.07
2023-01-26T11:33:04.826Z,5.37
2023-01-26T11:35:42.417Z,5.33
2023-01-26T11:38:23.594Z,5.28
2023-01-26T11:41:04.164Z,5.34
2023-01-26T11:43:55.364Z,5.28
2023-01-26T11:46:37.944Z,5.30
2023-01-26T11:49:21.132Z,4.95
2023-01-26T11:52:01.412Z,5.14
2023-01-26T11:54:40.104Z,5.31
2023-01-26T11:57:23.431Z,5.11
2023-01-26T11:59:55.757Z,5.24
2023-01-26T12:02:31.758Z,5.03
2023-01-26T12:05:06.004Z,4.95
2023-01-26T12:07:54.541Z,4.98
2023-01-26T12:10:29.009Z,5.08
2023-01-26T12:13:06.380Z,5.21
2023-01-26T12:15:38.064Z,5.17
2023-01-26T12:18:15.495Z,5.33
2023-01-26T12:20:47.203Z,5.31
2023-01-26T12:23:28.490Z,5.59
2023-01-26T12:26:01.266Z,5.39
2023-01-26T12:28:33.947Z,5.60
2023-01-26T12:31:10.333Z,5.46
2023-01-26T12:33:39.250Z,5.61
2023-01-26T12:36:21.246Z,5.72
2023-01-26T12:39:08.138Z,5.70
2023-01-26T12:41:49.708Z,5.58
2023-01-26T12:44:31.181Z,5.29
2023-01-26T12:47:07.146Z,5.41
2023-01-26T12:49:41.676Z,5.42
2023-01-26T12:52:17.405Z,5.69
2023-01-26T12:54:49.592Z,5.65
2023-01-26T12:57:22.637Z,5.82
2023-01-26T12:59:52.622Z,5.85
2023-01-26T13:02:29.750Z,5.61
2023-01-26T13:04:59.743Z,5.67
2023-01-26T13:07:33.708Z,5.87
2023-01-26T13:10:22.444Z,5.89
2023-01-26T13:12:55.291Z,5.74
2023-01-26T13:15:26.800Z,5.54
2023-01-26T13:17:57.577Z,5.74
2023-01-26T13:20:42.897Z,5.64
2023-01-26T13:23:52.660Z,5.51
2023-01-26T13:26:45.276Z,5.63
2023-01-26T13:29:35.412Z,5.68
2023-01-26T13:32:55.747Z,5.68
2023-01-26T13:35:27.707Z,5.90
2023-01-26T13:38:01.806Z,5.80
2023-01-26T13:40:33.373Z,5.67
2023-01-26T13:43:14.588Z,5.76
2023-01-26T13:45:56.870Z,5.55
2023-01-26T13:48:41.094Z,5.57
2023-01-26T13:51:14.971Z,5.71
2023-01-26T13:53:47.972Z,5.73
2023-01-26T13:56:26.658Z,5.84
2023-01-26T13:58:55.484Z,5.95
2023-01-26T14:01:23.896Z,6.00
2023-01-26T14:04:04.164Z,6.04
2023-01-26T14:06:35.281Z,6.07
2023-01-26T14:09:04.687Z,6.07
2023-01-26T14:11:34.418Z,6.09
2023-01-26T14:14:03.604Z,6.13
2023-01-26T14:16:34.056Z,6.22
2023-01-26T14:19:07.366Z,6.17
2023-01-26T14:21:48.012Z,6.16
2023-01-26T14:24:16.195Z,6.14
2023-01-26T14:26:44.623Z,5.89
2023-01-26T14:29:14.399Z,5.91
2023-01-26T14:31:42.557Z,5.94
2023-01-26T14:34:12.042Z,6.02
2023-01-26T14:36:40.201Z,5.95
2023-01-26T14:39:18.651Z,6.00
2023-01-26T14:41:48.569Z,6.03
2023-01-26T14:44:16.672Z,6.03
2023-01-26T14:46:55.036Z,6.04
2023-01-26T14:49:29.480Z,6.03
2023-01-26T14:51:59.511Z,6.04
2023-01-26T14:54:33.131Z,6.03
2023-01-26T14:57:01.922Z,6.01
2023-01-26T14:59:36.158Z,5.88
2023-01-26T15:02:13.879Z,5.60
2023-01-26T15:04:47.298Z,5.75
2023-01-26T15:07:42.661Z,5.86
2023-01-26T15:10:38.621Z,5.87
2023-01-26T15:13:22.134Z,5.93
2023-01-26T15:16:04.869Z,5.82
2023-01-26T15:18:34.276Z,5.76
2023-01-26T15:21:13.192Z,5.80
2023-01-26T15:23:43.725Z,5.78
2023-01-26T15:26:27.975Z,5.87
2023-01-26T15:28:59.241Z,5.82
2023-01-26T15:31:35.349Z,5.89
2023-01-26T15:34:04.208Z,5.82
2023-01-26T15:36:47.335Z,5.96
2023-01-26T15:39:18.094Z,5.99
2023-01-26T15:42:02.215Z,5.97
2023-01-26T15:44:30.263Z,6.00
2023-01-26T15:46:59.652Z,6.02
2023-01-26T15:49:28.065Z,5.99
2023-01-26T15:51:56.137Z,5.99
2023-01-26T15:54:24.394Z,5.97
2023-01-26T15:56:53.978Z,5.89
2023-01-26T15:59:21.983Z,5.90
2023-01-26T16:01:51.663Z,5.83
2023-01-26T16:04:19.875Z,5.82
2023-01-26T16:06:47.996Z,5.86
2023-01-26T16:09:16.163Z,5.91
2023-01-26T16:11:51.601Z,5.77
2023-01-26T16:14:21.320Z,5.79
2023-01-26T16:16:50.199Z,5.69
2023-01-26T16:19:33.685Z,5.71
2023-01-26T16:22:03.172Z,5.60
2023-01-26T16:24:31.250Z,5.73
2023-01-26T16:26:59.200Z,5.67
2023-01-26T16:29:28.928Z,5.64
2023-01-26T16:31:57.012Z,5.57
2023-01-26T16:34:25.064Z,5.59
2023-01-26T16:36:53.336Z,5.52
2023-01-26T16:39:21.958Z,5.54
2023-01-26T16:41:50.307Z,5.58
2023-01-26T16:44:19.622Z,5.58
2023-01-26T16:46:49.037Z,5.66
2023-01-26T16:49:17.424Z,5.59
2023-01-26T16:51:46.135Z,5.75
2023-01-26T16:54:14.112Z,5.70
2023-01-26T16:56:42.388Z,5.78
2023-01-26T16:59:10.633Z,5.86
2023-01-26T17:01:39.900Z,5.86
2023-01-26T17:04:12.071Z,5.86
2023-01-26T17:06:40.480Z,5.81
2023-01-26T17:09:10.407Z,5.78
2023-01-26T17:11:38.405Z,5.76
2023-01-26T17:14:06.689Z,5.82
2023-01-26T17:16:34.809Z,5.87
2023-01-26T17:19:02.943Z,5.92
2023-01-26T17:21:32.665Z,5.93
2023-01-26T17:24:00.734Z,5.95
2023-01-26T17:26:28.880Z,5.92
2023-01-26T17:28:57.241Z,5.89
2023-01-26T17:31:26.720Z,5.95
2023-01-26T17:33:55.896Z,5.95
2023-01-26T17:36:24.351Z,5.97
2023-01-26T17:38:54.182Z,5.98
2023-01-26T17:41:22.226Z,6.00
2023-01-26T17:43:51.325Z,6.04
2023-01-26T17:46:21.917Z,6.09
2023-01-26T17:48:50.804Z,6.04
2023-01-26T17:51:21.074Z,6.02
2023-01-26T17:53:50.553Z,5.94
2023-01-26T17:56:22.008Z,5.97
2023-01-26T17:58:51.218Z,6.01
2023-01-26T18:01:21.071Z,6.04
2023-01-26T18:03:49.916Z,6.07
2023-01-26T18:06:18.378Z,6.05
2023-01-26T18:08:46.653Z,6.02
2023-01-26T18:11:16.300Z,6.02
2023-01-26T18:13:45.691Z,6.01
2023-01-26T18:16:16.571Z,6.05
2023-01-26T18:18:44.998Z,5.83
2023-01-26T18:21:15.359Z,5.76
2023-01-26T18:23:45.663Z,5.82
2023-01-26T18:26:15.619Z,5.71
2023-01-26T18:28:45.303Z,5.67
2023-01-26T18:31:15.354Z,5.65
2023-01-26T18:33:43.714Z,5.67
2023-01-26T18:36:14.565Z,5.69
2023-01-26T18:38:44.491Z,5.72
2023-01-26T18:41:14.411Z,5.71
2023-01-26T18:43:43.718Z,5.69
2023-01-26T18:46:13.493Z,5.76
2023-01-26T18:48:41.655Z,5.80
2023-01-26T18:51:13.229Z,5.83
2023-01-26T18:53:41.638Z,5.77
2023-01-26T18:56:11.791Z,5.71
2023-01-26T18:58:40.658Z,5.72
2023-01-26T19:01:12.045Z,5.70
2023-01-26T19:03:47.441Z,5.76
2023-01-26T19:06:19.745Z,5.72
2023-01-26T19:08:55.371Z,5.71
2023-01-26T19:11:23.451Z,5.70
2023-01-26T19:13:51.745Z,5.66
2023-01-26T19:16:19.834Z,5.71
2023-01-26T19:18:49.894Z,5.76
2023-01-26T19:21:21.572Z,5.77
2023-01-26T19:23:50.166Z,5.83
2023-01-26T19:26:20.400Z,5.87
2023-01-26T19:28:50.607Z,5.94
2023-01-26T19:31:20.125Z,5.98
2023-01-26T19:33:53.618Z,6.01
2023-01-26T19:36:22.414Z,6.04
2023-01-26T19:38:50.808Z,6.07
2023-01-26T19:41:19.795Z,6.05
2023-01-26T19:43:48.415Z,6.09
2023-01-26T19:46:16.761Z,6.14
2023-01-26T19:48:46.096Z,6.15
2023-01-26T19:51:17.693Z,6.12
2023-01-26T19:53:47.988Z,6.13
2023-01-26T19:56:18.343Z,6.11
2023-01-26T19:58:50.839Z,6.09
2023-01-26T20:01:19.860Z,6.12
2023-01-26T20:03:50.679Z,6.15
2023-01-26T20:06:21.961Z,6.18
2023-01-26T20:08:50.870Z,6.20
2023-01-26T20:11:20.257Z,6.26
2023-01-26T20:13:48.240Z,6.21
2023-01-26T20:16:16.565Z,6.19
2023-01-26T20:18:45.110Z,6.18
2023-01-26T20:21:13.089Z,6.20
2023-01-26T20:23:53.566Z,6.21
2023-01-26T20:26:22.860Z,6.23
2023-01-26T20:28:52.092Z,6.26
2023-01-26T20:31:22.279Z,6.28
2023-01-26T20:33:51.839Z,6.31
2023-01-26T20:36:23.647Z,6.22
2023-01-26T20:38:53.780Z,6.23
2023-01-26T20:41:23.984Z,6.20
2023-01-26T20:44:00.250Z,6.27
2023-01-26T20:46:30.618Z,6.31
2023-01-26T20:48:58.986Z,6.36
2023-01-26T20:51:30.310Z,6.41
2023-01-26T20:54:00.568Z,6.33
2023-01-26T20:56:28.635Z,6.35
2023-01-26T20:58:57.597Z,6.39
2023-01-26T21:01:26.848Z,6.38
2023-01-26T21:03:55.323Z,6.33
2023-01-26T21:06:24.666Z,6.33
2023-01-26T21:08:55.061Z,6.29
2023-01-26T21:11:26.389Z,6.25
2023-01-26T21:13:55.952Z,6.25
2023-01-26T21:16:24.468Z,6.28
2023-01-26T21:18:52.845Z,6.34
2023-01-26T21:21:23.332Z,6.40
2023-01-26T21:23:52.120Z,6.45
2023-01-26T21:26:22.593Z,6.49
2023-01-26T21:28:53.625Z,6.46
2023-01-26T21:31:25.010Z,6.38
2023-01-26T21:33:53.845Z,6.41
2023-01-26T21:36:24.471Z,6.44
2023-01-26T21:38:54.211Z,6.45
2023-01-26T21:41:41.592Z,6.51
2023-01-26T21:44:12.668Z,6.55
2023-01-26T21:46:41.323Z,6.55
2023-01-26T21:49:10.685Z,6.56
2023-01-26T21:52:08.180Z,6.58
2023-01-26T21:54:36.668Z,6.58
2023-01-26T21:57:26.730Z,6.57
2023-01-26T21:59:55.895Z,6.57
2023-01-26T22:02:23.951Z,6.57
2023-01-26T22:04:52.765Z,6.57
2023-01-26T22:07:20.807Z,6.55
2023-01-26T22:09:48.887Z,6.54
2023-01-26T22:12:17.573Z,6.57
2023-01-26T22:14:45.545Z,6.60
2023-01-26T22:17:15.082Z,6.65
2023-01-26T22:19:43.381Z,6.67
2023-01-26T22:22:12.728Z,6.66
2023-01-26T22:24:40.910Z,6.65
2023-01-26T22:27:09.269Z,6.68
2023-01-26T22:29:37.292Z,6.70
2023-01-26T22:32:05.720Z,6.71
2023-01-26T22:34:35.701Z,6.73
2023-01-26T22:37:04.294Z,6.73
2023-01-26T22:39:32.480Z,6.75
2023-01-26T22:42:00.888Z,6.65
2023-01-26T22:44:28.818Z,6.57
2023-01-26T22:46:56.923Z,6.57
2023-01-26T22:49:25.396Z,6.65
2023-01-26T22:51:54.688Z,6.56
2023-01-26T22:54:22.648Z,6.57
2023-01-26T22:56:50.852Z,6.56
2023-01-26T22:59:18.847Z,6.50
2023-01-26T23:01:46.939Z,6.41
2023-01-26T23:04:18.609Z,6.38
2023-01-26T23:06:48.637Z,6.42
2023-01-26T23:09:18.311Z,6.38
2023-01-26T23:12:01.470Z,6.36
2023-01-26T23:14:30.178Z,6.27
2023-01-26T23:16:58.777Z,6.35
2023-01-26T23:19:27.159Z,6.40
2023-01-26T23:21:56.085Z,6.38
2023-01-26T23:24:25.500Z,6.29
2023-01-26T23:26:53.559Z,6.30
2023-01-26T23:29:22.314Z,6.28
2023-01-26T23:31:52.898Z,6.25
2023-01-26T23:34:21.260Z,6.33
2023-01-26T23:36:49.681Z,6.30
2023-01-26T23:39:18.007Z,6.27
2023-01-26T23:41:49.766Z,6.23
2023-01-26T23:44:18.057Z,6.19
2023-01-26T23:46:46.205Z,6.16
2023-01-26T23:49:14.312Z,6.27
2023-01-26T23:51:45.935Z,6.31
2023-01-26T23:54:14.094Z,6.28
2023-01-26T23:56:42.462Z,6.21
2023-01-26T23:59:11.792Z,6.17
